sensor_id;sensor_type;location;lat;lon;timestamp;P1;durP1;ratioP1;P2;durP2;ratioP2
71648;SDS011;59492;45.638;11.714;2022-11-15T00:01:39;7.20;;;6.00;;
71648;SDS011;59492;45.638;11.714;2022-11-15T00:04:05;6.80;;;6.10;;
71648;SDS011;59492;45.638;11.714;2022-11-15T00:06:32;6.30;;;5.60;;
71648;SDS011;59492;45.638;11.714;2022-11-15T00:08:57;8.10;;;6.30;;
71648;SDS011;59492;45.638;11.714;2022-11-15T00:11:24;6.50;;;5.80;;
71648;SDS011;59492;45.638;11.714;2022-11-15T00:13:50;8.50;;;6.70;;
71648;SDS011;59492;45.638;11.714;2022-11-15T00:16:15;7.30;;;6.40;;
71648;SDS011;59492;45.638;11.714;2022-11-15T00:18:42;8.20;;;6.50;;
71648;SDS011;59492;45.638;11.714;2022-11-15T00:21:10;6.70;;;6.00;;
71648;SDS011;59492;45.638;11.714;2022-11-15T00:23:37;8.80;;;6.50;;
71648;SDS011;59492;45.638;11.714;2022-11-15T00:26:04;7.40;;;6.20;;
71648;SDS011;59492;45.638;11.714;2022-11-15T00:28:31;6.80;;;6.10;;
71648;SDS011;59492;45.638;11.714;2022-11-15T00:31:03;7.10;;;6.40;;
71648;SDS011;59492;45.638;11.714;2022-11-15T00:33:31;8.10;;;6.70;;
71648;SDS011;59492;45.638;11.714;2022-11-15T00:36:01;7.70;;;6.40;;
71648;SDS011;59492;45.638;11.714;2022-11-15T00:38:31;7.70;;;6.50;;
71648;SDS011;59492;45.638;11.714;2022-11-15T00:40:58;6.80;;;6.20;;
71648;SDS011;59492;45.638;11.714;2022-11-15T00:43:25;7.20;;;6.50;;
71648;SDS011;59492;45.638;11.714;2022-11-15T00:45:50;6.90;;;5.60;;
71648;SDS011;59492;45.638;11.714;2022-11-15T00:48:16;6.40;;;5.40;;
71648;SDS011;59492;45.638;11.714;2022-11-15T00:50:41;7.90;;;6.10;;
71648;SDS011;59492;45.638;11.714;2022-11-15T00:53:07;6.80;;;5.80;;
71648;SDS011;59492;45.638;11.714;2022-11-15T00:55:32;7.40;;;6.60;;
71648;SDS011;59492;45.638;11.714;2022-11-15T00:57:58;8.40;;;6.10;;
71648;SDS011;59492;45.638;11.714;2022-11-15T01:00:23;8.00;;;6.30;;
71648;SDS011;59492;45.638;11.714;2022-11-15T01:02:49;6.90;;;6.00;;
71648;SDS011;59492;45.638;11.714;2022-11-15T01:05:14;7.20;;;6.00;;
71648;SDS011;59492;45.638;11.714;2022-11-15T01:07:40;8.30;;;5.50;;
71648;SDS011;59492;45.638;11.714;2022-11-15T01:10:06;6.90;;;5.80;;
71648;SDS011;59492;45.638;11.714;2022-11-15T01:12:32;7.20;;;5.80;;
71648;SDS011;59492;45.638;11.714;2022-11-15T01:14:58;7.00;;;6.10;;
71648;SDS011;59492;45.638;11.714;2022-11-15T01:17:24;6.90;;;6.20;;
71648;SDS011;59492;45.638;11.714;2022-11-15T01:19:49;6.60;;;5.90;;
71648;SDS011;59492;45.638;11.714;2022-11-15T01:22:15;7.10;;;6.20;;
71648;SDS011;59492;45.638;11.714;2022-11-15T01:24:41;6.60;;;5.90;;
71648;SDS011;59492;45.638;11.714;2022-11-15T01:27:06;6.60;;;5.90;;
71648;SDS011;59492;45.638;11.714;2022-11-15T01:29:32;6.50;;;5.80;;
71648;SDS011;59492;45.638;11.714;2022-11-15T01:31:58;6.70;;;5.80;;
71648;SDS011;59492;45.638;11.714;2022-11-15T01:34:23;6.50;;;5.90;;
71648;SDS011;59492;45.638;11.714;2022-11-15T01:36:49;9.50;;;6.20;;
71648;SDS011;59492;45.638;11.714;2022-11-15T01:39:14;7.20;;;6.00;;
71648;SDS011;59492;45.638;11.714;2022-11-15T01:41:40;6.80;;;6.10;;
71648;SDS011;59492;45.638;11.714;2022-11-15T01:44:50;6.50;;;5.80;;
71648;SDS011;59492;45.638;11.714;2022-11-15T01:49:49;6.10;;;5.50;;
71648;SDS011;59492;45.638;11.714;2022-11-15T01:52:19;7.40;;;6.00;;
71648;SDS011;59492;45.638;11.714;2022-11-15T01:54:48;6.00;;;5.40;;
71648;SDS011;59492;45.638;11.714;2022-11-15T01:57:18;7.60;;;6.00;;
71648;SDS011;59492;45.638;11.714;2022-11-15T01:59:44;6.90;;;5.50;;
71648;SDS011;59492;45.638;11.714;2022-11-15T02:02:11;6.00;;;5.40;;
71648;SDS011;59492;45.638;11.714;2022-11-15T02:04:41;6.90;;;5.90;;
71648;SDS011;59492;45.638;11.714;2022-11-15T02:07:11;6.60;;;5.40;;
71648;SDS011;59492;45.638;11.714;2022-11-15T02:09:40;5.50;;;5.00;;
71648;SDS011;59492;45.638;11.714;2022-11-15T02:12:06;6.10;;;5.50;;
71648;SDS011;59492;45.638;11.714;2022-11-15T02:14:33;6.50;;;5.50;;
71648;SDS011;59492;45.638;11.714;2022-11-15T02:17:03;6.50;;;5.80;;
71648;SDS011;59492;45.638;11.714;2022-11-15T02:19:55;6.40;;;5.70;;
71648;SDS011;59492;45.638;11.714;2022-11-15T02:37:07;6.50;;;5.80;;
71648;SDS011;59492;45.638;11.714;2022-11-15T02:39:43;6.80;;;5.70;;
71648;SDS011;59492;45.638;11.714;2022-11-15T02:42:32;5.80;;;5.30;;
71648;SDS011;59492;45.638;11.714;2022-11-15T02:45:24;6.90;;;6.30;;
71648;SDS011;59492;45.638;11.714;2022-11-15T02:47:56;7.20;;;5.90;;
71648;SDS011;59492;45.638;11.714;2022-11-15T02:50:25;6.30;;;5.50;;
71648;SDS011;59492;45.638;11.714;2022-11-15T02:52:53;5.60;;;5.00;;
71648;SDS011;59492;45.638;11.714;2022-11-15T02:55:26;6.10;;;5.50;;
71648;SDS011;59492;45.638;11.714;2022-11-15T03:00:23;5.80;;;5.30;;
71648;SDS011;59492;45.638;11.714;2022-11-15T03:05:34;5.70;;;5.10;;
71648;SDS011;59492;45.638;11.714;2022-11-15T03:13:48;6.10;;;5.50;;
71648;SDS011;59492;45.638;11.714;2022-11-15T03:16:34;6.20;;;5.50;;
71648;SDS011;59492;45.638;11.714;2022-11-15T03:19:06;6.70;;;5.60;;
71648;SDS011;59492;45.638;11.714;2022-11-15T03:21:33;6.40;;;5.80;;
71648;SDS011;59492;45.638;11.714;2022-11-15T03:24:01;7.10;;;6.00;;
71648;SDS011;59492;45.638;11.714;2022-11-15T03:26:30;6.30;;;5.70;;
71648;SDS011;59492;45.638;11.714;2022-11-15T03:29:05;6.20;;;5.10;;
71648;SDS011;59492;45.638;11.714;2022-11-15T03:31:37;5.50;;;5.00;;
71648;SDS011;59492;45.638;11.714;2022-11-15T03:34:19;6.70;;;5.80;;
71648;SDS011;59492;45.638;11.714;2022-11-15T03:36:46;6.00;;;5.40;;
71648;SDS011;59492;45.638;11.714;2022-11-15T03:39:12;5.90;;;5.10;;
71648;SDS011;59492;45.638;11.714;2022-11-15T03:41:43;6.10;;;5.20;;
71648;SDS011;59492;45.638;11.714;2022-11-15T03:50:10;5.30;;;4.80;;
71648;SDS011;59492;45.638;11.714;2022-11-15T03:52:41;5.10;;;4.60;;
71648;SDS011;59492;45.638;11.714;2022-11-15T03:55:10;5.70;;;5.10;;
71648;SDS011;59492;45.638;11.714;2022-11-15T03:57:39;6.00;;;5.20;;
71648;SDS011;59492;45.638;11.714;2022-11-15T04:00:05;6.00;;;5.00;;
71648;SDS011;59492;45.638;11.714;2022-11-15T04:02:31;5.60;;;5.00;;
71648;SDS011;59492;45.638;11.714;2022-11-15T04:04:56;6.10;;;5.40;;
71648;SDS011;59492;45.638;11.714;2022-11-15T04:07:22;6.10;;;5.40;;
71648;SDS011;59492;45.638;11.714;2022-11-15T04:09:47;5.90;;;5.00;;
71648;SDS011;59492;45.638;11.714;2022-11-15T04:12:32;5.60;;;4.70;;
71648;SDS011;59492;45.638;11.714;2022-11-15T04:17:49;6.40;;;5.10;;
71648;SDS011;59492;45.638;11.714;2022-11-15T04:23:27;6.10;;;5.40;;
71648;SDS011;59492;45.638;11.714;2022-11-15T04:26:12;6.20;;;5.60;;
71648;SDS011;59492;45.638;11.714;2022-11-15T04:28:41;6.20;;;5.10;;
71648;SDS011;59492;45.638;11.714;2022-11-15T04:31:25;5.20;;;4.70;;
71648;SDS011;59492;45.638;11.714;2022-11-15T04:33:54;5.90;;;5.10;;
71648;SDS011;59492;45.638;11.714;2022-11-15T04:36:32;6.50;;;5.00;;
71648;SDS011;59492;45.638;11.714;2022-11-15T04:39:17;5.40;;;4.90;;
71648;SDS011;59492;45.638;11.714;2022-11-15T04:41:42;6.20;;;5.20;;
71648;SDS011;59492;45.638;11.714;2022-11-15T04:44:08;5.30;;;4.80;;
71648;SDS011;59492;45.638;11.714;2022-11-15T04:46:34;5.80;;;5.20;;
71648;SDS011;59492;45.638;11.714;2022-11-15T04:49:00;5.70;;;5.10;;
71648;SDS011;59492;45.638;11.714;2022-11-15T04:51:25;5.50;;;5.00;;
71648;SDS011;59492;45.638;11.714;2022-11-15T04:53:51;5.00;;;4.50;;
71648;SDS011;59492;45.638;11.714;2022-11-15T04:56:16;5.40;;;4.90;;
71648;SDS011;59492;45.638;11.714;2022-11-15T04:58:42;5.40;;;4.90;;
71648;SDS011;59492;45.638;11.714;2022-11-15T05:01:08;5.00;;;4.50;;
71648;SDS011;59492;45.638;11.714;2022-11-15T05:03:40;6.30;;;5.50;;
71648;SDS011;59492;45.638;11.714;2022-11-15T05:06:28;5.30;;;4.80;;
71648;SDS011;59492;45.638;11.714;2022-11-15T05:08:54;6.00;;;5.40;;
71648;SDS011;59492;45.638;11.714;2022-11-15T05:11:20;5.10;;;4.60;;
71648;SDS011;59492;45.638;11.714;2022-11-15T05:13:46;4.90;;;4.40;;
71648;SDS011;59492;45.638;11.714;2022-11-15T05:16:12;6.70;;;5.00;;
71648;SDS011;59492;45.638;11.714;2022-11-15T05:18:38;4.90;;;4.40;;
71648;SDS011;59492;45.638;11.714;2022-11-15T05:21:09;5.50;;;5.00;;
71648;SDS011;59492;45.638;11.714;2022-11-15T05:23:37;5.50;;;4.90;;
71648;SDS011;59492;45.638;11.714;2022-11-15T05:26:03;6.70;;;5.20;;
71648;SDS011;59492;45.638;11.714;2022-11-15T05:28:30;5.90;;;5.10;;
71648;SDS011;59492;45.638;11.714;2022-11-15T05:31:07;4.70;;;4.30;;
71648;SDS011;59492;45.638;11.714;2022-11-15T05:33:35;5.00;;;4.40;;
71648;SDS011;59492;45.638;11.714;2022-11-15T05:38:40;5.60;;;4.80;;
71648;SDS011;59492;45.638;11.714;2022-11-15T05:41:07;5.20;;;4.70;;
71648;SDS011;59492;45.638;11.714;2022-11-15T05:43:33;5.60;;;5.00;;
71648;SDS011;59492;45.638;11.714;2022-11-15T05:46:01;5.20;;;4.70;;
71648;SDS011;59492;45.638;11.714;2022-11-15T05:48:28;5.30;;;4.80;;
71648;SDS011;59492;45.638;11.714;2022-11-15T05:50:54;5.50;;;5.00;;
71648;SDS011;59492;45.638;11.714;2022-11-15T05:53:21;4.70;;;4.30;;
71648;SDS011;59492;45.638;11.714;2022-11-15T05:55:50;5.10;;;4.60;;
71648;SDS011;59492;45.638;11.714;2022-11-15T05:58:16;4.60;;;4.20;;
71648;SDS011;59492;45.638;11.714;2022-11-15T06:00:43;5.50;;;5.00;;
71648;SDS011;59492;45.638;11.714;2022-11-15T06:03:08;5.40;;;4.90;;
71648;SDS011;59492;45.638;11.714;2022-11-15T06:05:34;4.90;;;4.30;;
71648;SDS011;59492;45.638;11.714;2022-11-15T06:08:00;5.80;;;5.00;;
71648;SDS011;59492;45.638;11.714;2022-11-15T06:10:25;4.80;;;4.40;;
71648;SDS011;59492;45.638;11.714;2022-11-15T06:13:01;5.40;;;4.30;;
71648;SDS011;59492;45.638;11.714;2022-11-15T06:15:28;4.70;;;4.30;;
71648;SDS011;59492;45.638;11.714;2022-11-15T06:17:58;4.50;;;4.10;;
71648;SDS011;59492;45.638;11.714;2022-11-15T06:20:25;5.10;;;4.60;;
71648;SDS011;59492;45.638;11.714;2022-11-15T06:22:58;4.90;;;4.40;;
71648;SDS011;59492;45.638;11.714;2022-11-15T06:25:25;5.40;;;4.70;;
71648;SDS011;59492;45.638;11.714;2022-11-15T06:27:52;5.10;;;4.60;;
71648;SDS011;59492;45.638;11.714;2022-11-15T06:30:18;4.80;;;4.30;;
71648;SDS011;59492;45.638;11.714;2022-11-15T06:32:44;4.20;;;3.80;;
71648;SDS011;59492;45.638;11.714;2022-11-15T06:35:10;4.90;;;4.40;;
71648;SDS011;59492;45.638;11.714;2022-11-15T06:37:36;5.50;;;4.50;;
71648;SDS011;59492;45.638;11.714;2022-11-15T06:40:03;5.10;;;4.60;;
71648;SDS011;59492;45.638;11.714;2022-11-15T06:42:33;5.10;;;4.70;;
71648;SDS011;59492;45.638;11.714;2022-11-15T06:44:59;4.70;;;4.30;;
71648;SDS011;59492;45.638;11.714;2022-11-15T06:47:27;5.30;;;4.20;;
71648;SDS011;59492;45.638;11.714;2022-11-15T06:49:56;6.90;;;4.50;;
71648;SDS011;59492;45.638;11.714;2022-11-15T06:52:21;8.80;;;4.30;;
71648;SDS011;59492;45.638;11.714;2022-11-15T06:54:48;4.70;;;4.20;;
71648;SDS011;59492;45.638;11.714;2022-11-15T06:57:16;5.30;;;4.30;;
71648;SDS011;59492;45.638;11.714;2022-11-15T06:59:44;5.00;;;4.50;;
71648;SDS011;59492;45.638;11.714;2022-11-15T07:02:11;4.60;;;4.10;;
71648;SDS011;59492;45.638;11.714;2022-11-15T07:04:38;9.20;;;5.00;;
71648;SDS011;59492;45.638;11.714;2022-11-15T07:07:03;7.50;;;4.50;;
71648;SDS011;59492;45.638;11.714;2022-11-15T07:09:29;6.50;;;4.10;;
71648;SDS011;59492;45.638;11.714;2022-11-15T07:11:54;5.20;;;4.10;;
71648;SDS011;59492;45.638;11.714;2022-11-15T07:14:20;5.30;;;4.60;;
71648;SDS011;59492;45.638;11.714;2022-11-15T07:16:45;5.90;;;4.50;;
71648;SDS011;59492;45.638;11.714;2022-11-15T07:19:11;6.10;;;4.70;;
71648;SDS011;59492;45.638;11.714;2022-11-15T07:21:36;6.10;;;4.50;;
71648;SDS011;59492;45.638;11.714;2022-11-15T07:24:02;4.70;;;4.30;;
71648;SDS011;59492;45.638;11.714;2022-11-15T07:26:29;6.10;;;4.20;;
71648;SDS011;59492;45.638;11.714;2022-11-15T07:28:54;5.80;;;4.40;;
71648;SDS011;59492;45.638;11.714;2022-11-15T07:31:20;10.50;;;5.30;;
71648;SDS011;59492;45.638;11.714;2022-11-15T07:33:45;5.30;;;4.80;;
71648;SDS011;59492;45.638;11.714;2022-11-15T07:36:11;5.90;;;4.40;;
71648;SDS011;59492;45.638;11.714;2022-11-15T07:38:36;7.10;;;4.70;;
71648;SDS011;59492;45.638;11.714;2022-11-15T07:41:03;8.60;;;4.80;;
71648;SDS011;59492;45.638;11.714;2022-11-15T07:43:30;8.40;;;4.90;;
71648;SDS011;59492;45.638;11.714;2022-11-15T07:45:59;9.30;;;4.70;;
71648;SDS011;59492;45.638;11.714;2022-11-15T07:48:34;6.80;;;4.60;;
71648;SDS011;59492;45.638;11.714;2022-11-15T07:51:06;5.30;;;4.80;;
71648;SDS011;59492;45.638;11.714;2022-11-15T07:53:34;6.70;;;5.50;;
71648;SDS011;59492;45.638;11.714;2022-11-15T07:56:00;7.00;;;5.10;;
71648;SDS011;59492;45.638;11.714;2022-11-15T07:58:25;8.70;;;5.00;;
71648;SDS011;59492;45.638;11.714;2022-11-15T08:00:51;6.50;;;4.90;;
71648;SDS011;59492;45.638;11.714;2022-11-15T08:03:18;6.90;;;5.20;;
71648;SDS011;59492;45.638;11.714;2022-11-15T08:05:52;5.30;;;4.60;;
71648;SDS011;59492;45.638;11.714;2022-11-15T08:08:18;7.30;;;4.80;;
71648;SDS011;59492;45.638;11.714;2022-11-15T08:10:43;7.20;;;5.00;;
71648;SDS011;59492;45.638;11.714;2022-11-15T08:13:10;6.40;;;5.30;;
71648;SDS011;59492;45.638;11.714;2022-11-15T08:15:37;5.80;;;5.20;;
71648;SDS011;59492;45.638;11.714;2022-11-15T08:18:05;5.50;;;5.00;;
71648;SDS011;59492;45.638;11.714;2022-11-15T08:20:35;9.80;;;5.30;;
71648;SDS011;59492;45.638;11.714;2022-11-15T08:23:03;5.80;;;5.10;;
71648;SDS011;59492;45.638;11.714;2022-11-15T08:25:31;5.10;;;4.60;;
71648;SDS011;59492;45.638;11.714;2022-11-15T08:27:59;5.60;;;5.00;;
71648;SDS011;59492;45.638;11.714;2022-11-15T08:30:28;5.60;;;4.90;;
71648;SDS011;59492;45.638;11.714;2022-11-15T08:32:56;10.20;;;5.30;;
71648;SDS011;59492;45.638;11.714;2022-11-15T08:35:24;6.30;;;5.00;;
71648;SDS011;59492;45.638;11.714;2022-11-15T08:37:50;6.80;;;5.50;;
71648;SDS011;59492;45.638;11.714;2022-11-15T08:40:18;7.20;;;4.70;;
71648;SDS011;59492;45.638;11.714;2022-11-15T08:42:47;6.00;;;4.60;;
71648;SDS011;59492;45.638;11.714;2022-11-15T08:45:13;6.30;;;4.90;;
71648;SDS011;59492;45.638;11.714;2022-11-15T08:47:39;6.90;;;4.80;;
71648;SDS011;59492;45.638;11.714;2022-11-15T08:50:05;6.10;;;5.30;;
71648;SDS011;59492;45.638;11.714;2022-11-15T08:52:31;6.70;;;5.20;;
71648;SDS011;59492;45.638;11.714;2022-11-15T08:54:57;6.50;;;5.00;;
71648;SDS011;59492;45.638;11.714;2022-11-15T08:57:23;7.40;;;5.70;;
71648;SDS011;59492;45.638;11.714;2022-11-15T08:59:49;6.30;;;5.20;;
71648;SDS011;59492;45.638;11.714;2022-11-15T09:02:14;5.80;;;5.10;;
71648;SDS011;59492;45.638;11.714;2022-11-15T09:04:41;6.50;;;5.00;;
71648;SDS011;59492;45.638;11.714;2022-11-15T09:07:08;5.10;;;4.60;;
71648;SDS011;59492;45.638;11.714;2022-11-15T09:09:36;7.40;;;4.80;;
71648;SDS011;59492;45.638;11.714;2022-11-15T09:12:02;6.70;;;4.80;;
71648;SDS011;59492;45.638;11.714;2022-11-15T09:14:29;5.00;;;4.50;;
71648;SDS011;59492;45.638;11.714;2022-11-15T09:16:56;7.50;;;5.50;;
71648;SDS011;59492;45.638;11.714;2022-11-15T09:19:24;5.80;;;5.20;;
71648;SDS011;59492;45.638;11.714;2022-11-15T09:21:52;7.40;;;5.30;;
71648;SDS011;59492;45.638;11.714;2022-11-15T09:24:23;6.40;;;5.60;;
71648;SDS011;59492;45.638;11.714;2022-11-15T09:26:49;6.20;;;4.60;;
71648;SDS011;59492;45.638;11.714;2022-11-15T09:29:19;5.70;;;4.60;;
71648;SDS011;59492;45.638;11.714;2022-11-15T09:31:47;6.10;;;4.80;;
71648;SDS011;59492;45.638;11.714;2022-11-15T09:34:22;6.80;;;5.00;;
71648;SDS011;59492;45.638;11.714;2022-11-15T09:37:01;5.90;;;5.30;;
71648;SDS011;59492;45.638;11.714;2022-11-15T09:39:28;6.70;;;5.60;;
71648;SDS011;59492;45.638;11.714;2022-11-15T09:44:58;7.80;;;5.50;;
71648;SDS011;59492;45.638;11.714;2022-11-15T09:51:01;4.70;;;4.30;;
71648;SDS011;59492;45.638;11.714;2022-11-15T09:53:46;5.90;;;5.10;;
71648;SDS011;59492;45.638;11.714;2022-11-15T09:56:22;5.40;;;4.90;;
71648;SDS011;59492;45.638;11.714;2022-11-15T10:01:42;5.80;;;5.10;;
71648;SDS011;59492;45.638;11.714;2022-11-15T10:04:17;5.70;;;5.10;;
71648;SDS011;59492;45.638;11.714;2022-11-15T10:06:46;6.40;;;4.90;;
71648;SDS011;59492;45.638;11.714;2022-11-15T10:09:28;8.30;;;5.10;;
71648;SDS011;59492;45.638;11.714;2022-11-15T10:12:03;5.30;;;4.80;;
71648;SDS011;59492;45.638;11.714;2022-11-15T10:14:29;5.30;;;4.60;;
71648;SDS011;59492;45.638;11.714;2022-11-15T10:17:58;5.80;;;5.00;;
71648;SDS011;59492;45.638;11.714;2022-11-15T10:22:53;7.20;;;5.60;;
71648;SDS011;59492;45.638;11.714;2022-11-15T10:25:23;8.00;;;6.00;;
71648;SDS011;59492;45.638;11.714;2022-11-15T10:28:01;6.70;;;5.20;;
71648;SDS011;59492;45.638;11.714;2022-11-15T10:30:39;6.90;;;5.60;;
71648;SDS011;59492;45.638;11.714;2022-11-15T10:41:14;8.00;;;5.80;;
71648;SDS011;59492;45.638;11.714;2022-11-15T10:43:45;7.30;;;5.70;;
71648;SDS011;59492;45.638;11.714;2022-11-15T10:46:26;8.10;;;6.40;;
71648;SDS011;59492;45.638;11.714;2022-11-15T10:48:52;7.20;;;6.10;;
71648;SDS011;59492;45.638;11.714;2022-11-15T10:51:21;7.10;;;6.30;;
71648;SDS011;59492;45.638;11.714;2022-11-15T10:53:57;7.90;;;6.00;;
71648;SDS011;59492;45.638;11.714;2022-11-15T10:56:26;8.80;;;6.20;;
71648;SDS011;59492;45.638;11.714;2022-11-15T10:58:56;8.20;;;5.80;;
71648;SDS011;59492;45.638;11.714;2022-11-15T11:01:23;9.00;;;6.30;;
71648;SDS011;59492;45.638;11.714;2022-11-15T11:04:01;11.20;;;7.20;;
71648;SDS011;59492;45.638;11.714;2022-11-15T11:06:29;8.90;;;6.70;;
71648;SDS011;59492;45.638;11.714;2022-11-15T11:14:19;10.40;;;6.50;;
71648;SDS011;59492;45.638;11.714;2022-11-15T11:25:34;8.70;;;7.00;;
71648;SDS011;59492;45.638;11.714;2022-11-15T11:31:43;8.50;;;6.50;;
71648;SDS011;59492;45.638;11.714;2022-11-15T11:37:32;10.10;;;6.50;;
71648;SDS011;59492;45.638;11.714;2022-11-15T11:46:13;9.30;;;6.70;;
71648;SDS011;59492;45.638;11.714;2022-11-15T11:51:13;6.70;;;6.00;;
71648;SDS011;59492;45.638;11.714;2022-11-15T11:56:51;9.50;;;6.10;;
71648;SDS011;59492;45.638;11.714;2022-11-15T11:59:18;6.90;;;5.50;;
71648;SDS011;59492;45.638;11.714;2022-11-15T12:01:47;9.60;;;6.50;;
71648;SDS011;59492;45.638;11.714;2022-11-15T12:15:18;9.90;;;6.40;;
71648;SDS011;59492;45.638;11.714;2022-11-15T12:17:48;7.60;;;6.20;;
71648;SDS011;59492;45.638;11.714;2022-11-15T12:20:19;8.40;;;5.70;;
71648;SDS011;59492;45.638;11.714;2022-11-15T12:22:49;8.50;;;6.00;;
71648;SDS011;59492;45.638;11.714;2022-11-15T12:28:01;12.00;;;5.80;;
71648;SDS011;59492;45.638;11.714;2022-11-15T12:30:45;9.70;;;5.60;;
71648;SDS011;59492;45.638;11.714;2022-11-15T12:36:00;7.80;;;5.40;;
71648;SDS011;59492;45.638;11.714;2022-11-15T12:39:04;8.20;;;6.20;;
71648;SDS011;59492;45.638;11.714;2022-11-15T12:41:28;7.90;;;5.60;;
71648;SDS011;59492;45.638;11.714;2022-11-15T12:43:56;6.10;;;5.10;;
71648;SDS011;59492;45.638;11.714;2022-11-15T12:48:59;7.20;;;6.00;;
71648;SDS011;59492;45.638;11.714;2022-11-15T12:59:49;8.20;;;5.00;;
71648;SDS011;59492;45.638;11.714;2022-11-15T13:02:30;8.70;;;5.10;;
71648;SDS011;59492;45.638;11.714;2022-11-15T13:20:18;7.00;;;4.90;;
71648;SDS011;59492;45.638;11.714;2022-11-15T13:36:20;9.90;;;5.50;;
71648;SDS011;59492;45.638;11.714;2022-11-15T13:38:56;8.50;;;5.80;;
71648;SDS011;59492;45.638;11.714;2022-11-15T13:41:28;6.70;;;5.10;;
71648;SDS011;59492;45.638;11.714;2022-11-15T13:43:56;7.80;;;4.90;;
71648;SDS011;59492;45.638;11.714;2022-11-15T13:46:26;6.00;;;5.30;;
71648;SDS011;59492;45.638;11.714;2022-11-15T13:48:57;6.80;;;5.10;;
71648;SDS011;59492;45.638;11.714;2022-11-15T13:54:13;6.30;;;5.10;;
71648;SDS011;59492;45.638;11.714;2022-11-15T13:56:51;5.90;;;5.20;;
71648;SDS011;59492;45.638;11.714;2022-11-15T13:59:27;6.80;;;5.30;;
71648;SDS011;59492;45.638;11.714;2022-11-15T14:01:55;5.50;;;4.50;;
71648;SDS011;59492;45.638;11.714;2022-11-15T14:04:23;4.60;;;4.10;;
71648;SDS011;59492;45.638;11.714;2022-11-15T14:06:55;6.40;;;5.10;;
71648;SDS011;59492;45.638;11.714;2022-11-15T14:11:58;6.40;;;4.80;;
71648;SDS011;59492;45.638;11.714;2022-11-15T14:14:25;8.20;;;5.40;;
71648;SDS011;59492;45.638;11.714;2022-11-15T14:16:56;5.40;;;4.70;;
71648;SDS011;59492;45.638;11.714;2022-11-15T14:24:34;5.90;;;4.70;;
71648;SDS011;59492;45.638;11.714;2022-11-15T14:27:19;5.70;;;4.70;;
71648;SDS011;59492;45.638;11.714;2022-11-15T14:29:46;6.50;;;4.80;;
71648;SDS011;59492;45.638;11.714;2022-11-15T14:34:39;6.70;;;5.00;;
71648;SDS011;59492;45.638;11.714;2022-11-15T14:37:04;8.10;;;5.00;;
71648;SDS011;59492;45.638;11.714;2022-11-15T14:39:30;6.60;;;4.70;;
71648;SDS011;59492;45.638;11.714;2022-11-15T14:41:55;6.00;;;4.80;;
71648;SDS011;59492;45.638;11.714;2022-11-15T14:44:21;7.10;;;4.80;;
71648;SDS011;59492;45.638;11.714;2022-11-15T14:46:47;8.20;;;5.20;;
71648;SDS011;59492;45.638;11.714;2022-11-15T14:49:13;7.20;;;5.60;;
71648;SDS011;59492;45.638;11.714;2022-11-15T14:51:40;6.10;;;5.10;;
71648;SDS011;59492;45.638;11.714;2022-11-15T14:54:11;5.60;;;5.00;;
71648;SDS011;59492;45.638;11.714;2022-11-15T14:56:42;6.60;;;5.10;;
71648;SDS011;59492;45.638;11.714;2022-11-15T14:59:08;5.40;;;4.90;;
71648;SDS011;59492;45.638;11.714;2022-11-15T15:01:33;6.30;;;4.50;;
71648;SDS011;59492;45.638;11.714;2022-11-15T15:03:59;5.90;;;4.50;;
71648;SDS011;59492;45.638;11.714;2022-11-15T15:06:25;6.40;;;4.60;;
71648;SDS011;59492;45.638;11.714;2022-11-15T15:08:56;5.60;;;4.70;;
71648;SDS011;59492;45.638;11.714;2022-11-15T15:11:26;5.70;;;4.70;;
71648;SDS011;59492;45.638;11.714;2022-11-15T15:14:07;5.20;;;4.70;;
71648;SDS011;59492;45.638;11.714;2022-11-15T15:16:49;6.10;;;5.00;;
71648;SDS011;59492;45.638;11.714;2022-11-15T15:19:15;5.30;;;4.80;;
71648;SDS011;59492;45.638;11.714;2022-11-15T15:21:41;5.40;;;4.90;;
71648;SDS011;59492;45.638;11.714;2022-11-15T15:24:11;6.30;;;3.90;;
71648;SDS011;59492;45.638;11.714;2022-11-15T15:26:48;4.80;;;4.30;;
71648;SDS011;59492;45.638;11.714;2022-11-15T15:29:27;7.90;;;4.50;;
71648;SDS011;59492;45.638;11.714;2022-11-15T15:32:01;7.50;;;4.70;;
71648;SDS011;59492;45.638;11.714;2022-11-15T15:34:28;5.10;;;4.60;;
71648;SDS011;59492;45.638;11.714;2022-11-15T15:39:52;6.40;;;4.60;;
71648;SDS011;59492;45.638;11.714;2022-11-15T15:42:22;4.80;;;4.10;;
71648;SDS011;59492;45.638;11.714;2022-11-15T15:44:48;6.70;;;4.70;;
71648;SDS011;59492;45.638;11.714;2022-11-15T15:47:21;5.30;;;4.80;;
71648;SDS011;59492;45.638;11.714;2022-11-15T15:49:49;5.20;;;4.40;;
71648;SDS011;59492;45.638;11.714;2022-11-15T15:52:15;8.30;;;4.50;;
71648;SDS011;59492;45.638;11.714;2022-11-15T15:54:42;5.90;;;4.60;;
71648;SDS011;59492;45.638;11.714;2022-11-15T15:57:12;5.00;;;4.40;;
71648;SDS011;59492;45.638;11.714;2022-11-15T15:59:41;5.20;;;4.70;;
71648;SDS011;59492;45.638;11.714;2022-11-15T16:02:13;5.30;;;4.50;;
71648;SDS011;59492;45.638;11.714;2022-11-15T16:04:41;4.90;;;4.00;;
71648;SDS011;59492;45.638;11.714;2022-11-15T16:07:11;6.20;;;4.90;;
71648;SDS011;59492;45.638;11.714;2022-11-15T16:09:46;6.90;;;4.40;;
71648;SDS011;59492;45.638;11.714;2022-11-15T16:12:31;5.50;;;4.60;;
71648;SDS011;59492;45.638;11.714;2022-11-15T16:14:59;5.90;;;4.40;;
71648;SDS011;59492;45.638;11.714;2022-11-15T16:17:26;5.70;;;4.60;;
71648;SDS011;59492;45.638;11.714;2022-11-15T16:22:36;4.30;;;3.90;;
71648;SDS011;59492;45.638;11.714;2022-11-15T16:25:05;5.20;;;4.30;;
71648;SDS011;59492;45.638;11.714;2022-11-15T16:27:31;4.80;;;3.80;;
71648;SDS011;59492;45.638;11.714;2022-11-15T16:29:56;5.80;;;4.30;;
71648;SDS011;59492;45.638;11.714;2022-11-15T16:32:22;6.20;;;4.40;;
71648;SDS011;59492;45.638;11.714;2022-11-15T16:34:49;5.30;;;4.10;;
71648;SDS011;59492;45.638;11.714;2022-11-15T16:37:24;5.50;;;4.60;;
71648;SDS011;59492;45.638;11.714;2022-11-15T16:39:49;5.20;;;4.60;;
71648;SDS011;59492;45.638;11.714;2022-11-15T16:42:15;6.00;;;4.80;;
71648;SDS011;59492;45.638;11.714;2022-11-15T16:44:41;5.80;;;4.30;;
71648;SDS011;59492;45.638;11.714;2022-11-15T16:47:17;6.00;;;4.30;;
71648;SDS011;59492;45.638;11.714;2022-11-15T16:49:44;4.90;;;4.20;;
71648;SDS011;59492;45.638;11.714;2022-11-15T16:52:10;4.90;;;4.40;;
71648;SDS011;59492;45.638;11.714;2022-11-15T16:54:36;5.60;;;4.20;;
71648;SDS011;59492;45.638;11.714;2022-11-15T16:57:01;4.80;;;4.30;;
71648;SDS011;59492;45.638;11.714;2022-11-15T16:59:27;4.50;;;3.90;;
71648;SDS011;59492;45.638;11.714;2022-11-15T17:01:54;7.60;;;4.40;;
71648;SDS011;59492;45.638;11.714;2022-11-15T17:04:20;5.70;;;4.20;;
71648;SDS011;59492;45.638;11.714;2022-11-15T17:06:47;5.50;;;4.50;;
71648;SDS011;59492;45.638;11.714;2022-11-15T17:09:17;5.40;;;4.20;;
71648;SDS011;59492;45.638;11.714;2022-11-15T17:11:48;6.40;;;4.40;;
71648;SDS011;59492;45.638;11.714;2022-11-15T17:14:14;4.80;;;4.10;;
71648;SDS011;59492;45.638;11.714;2022-11-15T17:16:41;4.80;;;4.10;;
71648;SDS011;59492;45.638;11.714;2022-11-15T17:19:18;6.00;;;4.60;;
71648;SDS011;59492;45.638;11.714;2022-11-15T17:21:45;6.60;;;4.30;;
71648;SDS011;59492;45.638;11.714;2022-11-15T17:24:13;10.60;;;5.00;;
71648;SDS011;59492;45.638;11.714;2022-11-15T17:26:39;7.00;;;4.90;;
71648;SDS011;59492;45.638;11.714;2022-11-15T17:29:07;10.60;;;5.10;;
71648;SDS011;59492;45.638;11.714;2022-11-15T17:31:33;7.00;;;4.70;;
71648;SDS011;59492;45.638;11.714;2022-11-15T17:34:01;7.50;;;5.70;;
71648;SDS011;59492;45.638;11.714;2022-11-15T17:36:27;10.30;;;5.80;;